Parker, WA (98939)

2:04 AM PDT on September 19, 2014 (GMT -0700)
Vicinity I-82 Exit 40 | Change Station
CLOSE
Current Station
Personal Weather Station
Location: Parker Heights, WA
Elevation: 1013 ft
Nearby Weather Stations

Elev 1013 ft 46.52 °N, 120.45 °W | Updated 41 minutes ago

Partly Cloudy
Partly Cloudy
63.1 °F
Feels Like 63.1 °F
N
2.5
Wind Variable Wind from East
Gusts 2.5 mph

Today
High -- | Low -- °F
--% Chance of Precip.
Yesterday
High -- | Low -- °F
Precip. -- in
6:45 AM 7:05 PM
Waning Crescent, 20% visible
Pressure 29.93 in
Visibility 10.0 miles
Clouds Clear
Dew Point 50 °F
Humidity 61%
Rainfall 0.00 in
Snow Depth Not available.
UV 0 out of 12
Pollen 2.50 out of 12
Air Quality Not available.
Flu Activity Not available.
METAR KYKM 190853Z AUTO 28005KT 10SM CLR 12/09 A2994 RMK AO2 SLP135 T01170089 51015

More Conditions Fewer Conditions

Pressure 29.93 in
Visibility 10.0 miles
Clouds Clear
Dew Point 50 °F
Humidity 61%
Rainfall 0.00 in
Snow Depth Not available.
UV 0 out of 12
Pollen 2.50 out of 12
Air Quality Not available.
Flu Activity Not available.
METAR KYKM 190853Z AUTO 28005KT 10SM CLR 12/09 A2994 RMK AO2 SLP135 T01170089 51015

More Conditions Fewer Conditions

10-Day Weather Forecast

Almanac

Astronomy

Sep. 19, 2014 Rise Set
Actual Time 6:45 AM PDT 7:05 PM PDT
Civil Twilight 6:14 AM PDT 7:35 PM PDT
Nautical Twilight 5:39 AM PDT 8:10 PM PDT
Astronomical Twilight 5:02 AM PDT 8:47 PM PDT
Moon 2:22 AM PDT 4:47 PM PDT
Length of Visible Light 13h 20m
Length of Day
12h 20m
Tomorrow will be 3m 16s shorter.
Waning Crescent, 20% of the Moon is Illuminated
Today
Waning Crescent
Sep 24
New
Oct 1
First Quarter
Oct 8
Full
Oct 15
Last Quarter

Today's Extremes

State Highs State Lows

Community

WunderPhotos

Upload Photos

1,754,583 photos uploaded!

Nearby

Snow Depth

Station Depth Elevation
Dungeness 0 in 4100 ft
Lost Horse 0 in 5000 ft
Lone Pine 0 in 3800 ft
Harts Pass 0 in 6500 ft
Spruce Springs 1 in 5700 ft

Earthquake Activity

City Distance Mag. Time & Date
Morton, Washington 91 miles 3.0 5:43 AM PDT
2014-09-16
Minimum magnitude displayed is 2.5.

Coastal Water Temperatures

Place Temperature
No Stations Reporting

Nearby Weather Stations